Time;durP1;ratioP1;P1;durP2;ratioP2;P2;SDS_P1;SDS_P2;PMS_P1;PMS_P2;Temp;Humidity;BMP_temperature;BMP_pressure;BME280_temperature;BME280_humidity;BME280_pressure;Samples;Min_cycle;Max_cycle;Signal;HPM_P1;HPM_P2
2022/04/11 00:01:24;;;;;;;5.93;2.60;;;2.40;99.90;;;;;;5076497;28;20205;-74
2022/04/11 00:03:50;;;;;;;8.53;2.77;;;2.40;99.90;;;;;;5094659;28;20657;-73
2022/04/11 00:06:16;;;;;;;4.27;2.43;;;2.40;99.90;;;;;;5076438;28;20240;-73
2022/04/11 00:08:41;;;;;;;3.93;2.53;;;2.40;99.90;;;;;;5094702;28;20179;-73
2022/04/11 00:11:07;;;;;;;4.57;2.43;;;2.40;99.90;;;;;;5094504;28;20185;-74
2022/04/11 00:13:33;;;;;;;8.90;2.60;;;2.40;99.90;;;;;;5094867;28;20239;-74
2022/04/11 00:15:59;;;;;;;5.83;2.77;;;2.30;99.90;;;;;;5094457;28;20589;-73
2022/04/11 00:18:24;;;;;;;2.93;2.20;;;2.40;99.90;;;;;;5094913;28;20178;-73
2022/04/11 00:20:50;;;;;;;3.63;2.67;;;2.40;99.90;;;;;;5094249;28;20260;-73
2022/04/11 00:23:16;;;;;;;6.53;2.73;;;2.40;99.90;;;;;;5094574;28;20662;-73
2022/04/11 00:25:42;;;;;;;6.30;2.60;;;2.40;99.90;;;;;;5075148;28;20181;-73
2022/04/11 00:28:08;;;;;;;5.53;3.10;;;2.30;99.90;;;;;;5094062;28;20186;-73
2022/04/11 00:30:34;;;;;;;3.83;2.70;;;2.30;99.90;;;;;;5093965;28;20178;-73
2022/04/11 00:33:00;;;;;;;5.20;2.60;;;2.40;99.90;;;;;;5094231;28;20170;-73
2022/04/11 00:35:25;;;;;;;7.80;3.20;;;2.30;99.90;;;;;;5093988;28;20178;-73
2022/04/11 00:37:51;;;;;;;5.30;2.67;;;2.30;99.90;;;;;;5075813;28;20241;-73
2022/04/11 00:40:17;;;;;;;4.80;2.73;;;2.30;99.90;;;;;;5093927;28;20194;-73
2022/04/11 00:42:42;;;;;;;5.47;2.80;;;2.30;99.90;;;;;;5093936;28;20181;-73
2022/04/11 00:45:08;;;;;;;6.17;3.00;;;2.30;99.90;;;;;;5075628;28;20174;-73
2022/04/11 00:47:34;;;;;;;3.40;2.50;;;2.30;99.90;;;;;;5093956;28;20580;-74
2022/04/11 00:50:07;;;;;;;4.13;2.80;;;2.20;99.90;;;;;;5094009;28;20189;-73
2022/04/11 00:52:37;;;;;;;4.87;2.70;;;2.20;99.90;;;;;;5075589;28;20184;-73
2022/04/11 00:55:05;;;;;;;4.70;2.30;;;2.30;99.90;;;;;;5093821;28;20252;-73
2022/04/11 00:57:30;;;;;;;4.93;2.67;;;2.30;99.90;;;;;;5093572;28;20202;-73
2022/04/11 00:59:57;;;;;;;4.17;2.73;;;2.30;99.90;;;;;;5075363;28;20269;-73
2022/04/11 01:02:22;;;;;;;3.30;2.40;;;2.30;99.90;;;;;;5075428;28;20283;-73
2022/04/11 01:04:48;;;;;;;4.07;2.90;;;2.30;99.90;;;;;;5093597;28;20198;-73
2022/04/11 01:07:14;;;;;;;5.30;2.97;;;2.30;99.90;;;;;;5093371;28;20205;-73
2022/04/11 01:09:40;;;;;;;3.57;2.60;;;2.30;99.90;;;;;;5093659;28;20174;-73
2022/04/11 01:12:06;;;;;;;4.73;2.50;;;2.30;99.90;;;;;;5075526;28;20613;-74
2022/04/11 01:14:32;;;;;;;4.77;2.83;;;2.30;99.90;;;;;;5093517;28;20198;-73
2022/04/11 01:16:58;;;;;;;8.23;3.17;;;2.40;99.90;;;;;;5093454;28;20277;-73
2022/04/11 01:19:27;;;;;;;5.17;2.60;;;2.40;99.90;;;;;;5093488;28;20210;-73
2022/04/11 01:21:52;;;;;;;5.97;2.50;;;2.30;99.90;;;;;;5093356;28;20206;-73
2022/04/11 01:24:21;;;;;;;4.00;2.50;;;2.30;99.90;;;;;;5075048;28;20528;-73
2022/04/11 01:26:48;;;;;;;6.03;2.37;;;2.40;99.90;;;;;;5093378;28;20204;-73
2022/04/11 01:29:16;;;;;;;4.10;2.30;;;2.40;99.90;;;;;;5075402;28;20212;-73
2022/04/11 01:31:41;;;;;;;3.70;2.10;;;2.40;99.90;;;;;;5093679;28;20193;-73
2022/04/11 01:34:07;;;;;;;5.07;2.77;;;2.40;99.90;;;;;;5093297;28;20210;-73
2022/04/11 01:36:32;;;;;;;3.40;2.60;;;2.40;99.90;;;;;;5076938;28;20213;-73
2022/04/11 01:38:58;;;;;;;3.83;2.60;;;2.40;99.90;;;;;;5079243;28;20186;-73
2022/04/11 01:41:24;;;;;;;5.30;2.37;;;2.50;99.90;;;;;;5097543;28;20206;-73
2022/04/11 01:43:49;;;;;;;3.63;2.20;;;2.50;99.90;;;;;;5097234;28;20185;-73
2022/04/11 01:46:15;;;;;;;5.77;2.60;;;2.50;99.90;;;;;;5097178;28;20332;-74
2022/04/11 01:48:40;;;;;;;5.00;2.50;;;2.50;99.90;;;;;;5078984;28;20174;-73
2022/04/11 01:51:06;;;;;;;5.07;2.30;;;2.50;99.90;;;;;;5097383;28;20189;-73
2022/04/11 01:53:32;;;;;;;3.97;2.37;;;2.50;99.90;;;;;;5097329;28;20549;-73
2022/04/11 01:55:57;;;;;;;7.83;2.10;;;2.60;99.90;;;;;;5078871;28;20216;-74
2022/04/11 01:58:23;;;;;;;4.07;2.37;;;2.60;99.90;;;;;;5096920;28;20276;-74
2022/04/11 02:00:48;;;;;;;4.17;2.50;;;2.60;99.90;;;;;;5096999;28;20263;-73
2022/04/11 02:03:14;;;;;;;4.03;2.40;;;2.60;99.90;;;;;;5078850;28;20186;-73
2022/04/11 02:05:41;;;;;;;5.53;2.73;;;2.70;99.90;;;;;;5078969;28;20186;-73
2022/04/11 02:08:10;;;;;;;4.03;2.37;;;2.70;99.90;;;;;;5096814;28;20204;-74
2022/04/11 02:10:37;;;;;;;2.90;2.07;;;2.70;99.90;;;;;;5097166;28;20180;-73
2022/04/11 02:13:03;;;;;;;6.43;2.60;;;2.70;99.90;;;;;;5097186;28;20181;-73
2022/04/11 02:15:29;;;;;;;4.73;2.53;;;2.70;99.90;;;;;;5096981;28;20189;-73
2022/04/11 02:17:54;;;;;;;6.13;2.33;;;2.70;99.90;;;;;;5097001;28;20289;-74
2022/04/11 02:20:20;;;;;;;4.47;2.30;;;2.80;99.90;;;;;;5096726;28;20178;-73
2022/04/11 02:22:50;;;;;;;3.53;2.30;;;2.80;99.90;;;;;;5096573;28;20544;-73
2022/04/11 02:25:18;;;;;;;2.63;2.33;;;2.80;99.90;;;;;;5096598;28;20204;-73
2022/04/11 02:27:44;;;;;;;4.00;2.27;;;2.90;99.90;;;;;;5096552;28;20593;-74
2022/04/11 02:30:11;;;;;;;4.33;2.20;;;2.90;99.90;;;;;;5096417;28;20178;-73
2022/04/11 02:32:38;;;;;;;3.13;2.30;;;2.90;99.90;;;;;;5078227;28;20185;-73
2022/04/11 02:35:05;;;;;;;5.23;1.90;;;2.90;99.90;;;;;;5096430;28;20190;-73
2022/04/11 02:37:30;;;;;;;4.10;2.40;;;2.90;99.90;;;;;;5078036;28;20340;-73
2022/04/11 02:39:56;;;;;;;5.63;2.73;;;2.90;99.90;;;;;;5096558;28;20755;-73
2022/04/11 02:42:22;;;;;;;4.63;2.53;;;2.90;99.90;;;;;;5094959;28;20206;-73
2022/04/11 02:44:48;;;;;;;4.53;2.63;;;2.90;99.90;;;;;;5096323;28;20645;-73
2022/04/11 02:47:14;;;;;;;5.00;2.17;;;3.00;99.90;;;;;;5095843;28;20218;-73
2022/04/11 02:49:40;;;;;;;4.80;2.67;;;2.90;99.90;;;;;;5077623;28;20190;-73
2022/04/11 02:52:05;;;;;;;3.80;2.30;;;2.90;99.90;;;;;;5096059;28;20271;-73
2022/04/11 02:54:31;;;;;;;5.40;2.57;;;2.90;99.90;;;;;;5096004;28;20594;-73
2022/04/11 02:56:56;;;;;;;4.33;1.87;;;2.90;99.90;;;;;;5095858;28;20210;-73
2022/04/11 02:59:23;;;;;;;3.60;2.33;;;2.90;99.90;;;;;;5095903;28;20220;-73
2022/04/11 03:01:48;;;;;;;3.80;2.20;;;3.00;99.90;;;;;;5095680;28;20213;-73
2022/04/11 03:04:15;;;;;;;5.77;2.10;;;3.00;99.90;;;;;;5077605;28;20562;-73
2022/04/11 03:06:41;;;;;;;3.00;1.83;;;2.90;99.90;;;;;;5095660;28;20202;-73
2022/04/11 03:09:08;;;;;;;4.13;2.30;;;3.00;99.90;;;;;;5095733;28;20182;-74
2022/04/11 03:11:34;;;;;;;4.40;2.27;;;2.90;99.90;;;;;;5077904;28;20549;-73
2022/04/11 03:14:00;;;;;;;4.37;2.07;;;2.90;99.90;;;;;;5095776;28;20174;-73
2022/04/11 03:16:25;;;;;;;3.27;2.10;;;2.90;99.90;;;;;;5077581;28;20244;-73
2022/04/11 03:18:51;;;;;;;4.87;2.47;;;2.90;99.90;;;;;;5095744;28;20182;-74
2022/04/11 03:21:16;;;;;;;3.53;2.20;;;2.90;99.90;;;;;;5095435;28;20567;-73
2022/04/11 03:23:42;;;;;;;2.63;2.00;;;2.90;99.90;;;;;;5096060;28;20174;-73
2022/04/11 03:26:07;;;;;;;3.43;2.00;;;2.90;99.90;;;;;;5077153;28;20555;-73
2022/04/11 03:28:33;;;;;;;4.87;2.10;;;2.90;99.90;;;;;;5077288;28;20219;-73
2022/04/11 03:31:00;;;;;;;4.10;2.30;;;2.90;99.90;;;;;;5077081;28;20565;-73
2022/04/11 03:33:25;;;;;;;5.80;2.53;;;2.90;99.90;;;;;;5095343;28;20178;-73
2022/04/11 03:35:51;;;;;;;4.30;2.30;;;2.80;99.90;;;;;;5077016;28;20182;-73
2022/04/11 03:38:17;;;;;;;4.60;2.10;;;2.80;99.90;;;;;;5095104;28;20179;-73
2022/04/11 03:40:43;;;;;;;6.63;2.23;;;2.80;99.90;;;;;;5095254;28;20213;-73
2022/04/11 03:43:08;;;;;;;5.10;2.50;;;2.80;99.90;;;;;;5095580;28;20178;-73
2022/04/11 03:45:34;;;;;;;4.43;2.23;;;2.80;99.90;;;;;;5095380;28;20179;-73
2022/04/11 03:47:59;;;;;;;6.30;2.30;;;2.80;99.90;;;;;;5076892;28;20237;-73
2022/04/11 03:50:25;;;;;;;4.73;2.30;;;2.70;99.90;;;;;;5077175;28;20225;-73
2022/04/11 03:52:50;;;;;;;4.23;2.10;;;2.70;99.90;;;;;;5095526;28;20535;-74
2022/04/11 03:55:16;;;;;;;2.37;1.87;;;2.70;99.90;;;;;;5094811;28;20569;-73
2022/04/11 03:57:42;;;;;;;3.90;2.20;;;2.70;99.90;;;;;;5094822;28;20713;-73
2022/04/11 04:00:09;;;;;;;3.70;2.17;;;2.60;99.90;;;;;;5076814;28;20185;-73
2022/04/11 04:02:34;;;;;;;4.40;2.20;;;2.60;99.90;;;;;;5094520;28;20711;-73
2022/04/11 04:05:00;;;;;;;2.97;2.07;;;2.60;99.90;;;;;;5094599;28;20182;-75
2022/04/11 04:07:26;;;;;;;4.03;1.90;;;2.50;99.90;;;;;;5093624;28;20190;-74
2022/04/11 04:09:51;;;;;;;2.30;2.10;;;2.50;99.90;;;;;;5076788;28;20650;-73
2022/04/11 04:12:21;;;;;;;6.90;2.40;;;2.50;99.90;;;;;;5094566;28;20189;-73
2022/04/11 04:14:47;;;;;;;3.40;1.83;;;2.40;99.90;;;;;;5094467;28;20220;-73
2022/04/11 04:17:12;;;;;;;2.77;2.07;;;2.40;99.90;;;;;;5094314;28;20281;-73
2022/04/11 04:19:38;;;;;;;3.43;1.90;;;2.40;99.90;;;;;;5094242;28;20712;-73
2022/04/11 04:22:04;;;;;;;5.63;2.47;;;2.30;99.90;;;;;;5075936;28;20260;-73
2022/04/11 04:24:32;;;;;;;4.43;2.10;;;2.30;99.90;;;;;;5075937;28;20273;-73
2022/04/11 04:26:57;;;;;;;3.90;1.90;;;2.30;99.90;;;;;;5093605;28;20633;-73
2022/04/11 04:29:23;;;;;;;3.00;1.87;;;2.20;99.90;;;;;;5094123;28;20210;-73
2022/04/11 04:31:49;;;;;;;4.93;2.20;;;2.20;99.90;;;;;;5075974;28;20189;-73
2022/04/11 04:34:15;;;;;;;4.53;1.87;;;2.10;99.90;;;;;;5093979;28;20266;-73
2022/04/11 04:36:41;;;;;;;2.80;1.90;;;2.10;99.90;;;;;;5094632;28;20594;-73
2022/04/11 04:39:07;;;;;;;5.80;2.20;;;2.10;99.90;;;;;;5075772;28;20730;-74
2022/04/11 04:41:33;;;;;;;4.90;1.90;;;2.10;99.90;;;;;;5093744;28;20245;-73
2022/04/11 04:43:58;;;;;;;2.67;1.83;;;2.10;99.90;;;;;;5094262;28;20170;-73
2022/04/11 04:46:24;;;;;;;3.37;1.93;;;2.00;99.90;;;;;;5124418;22;20220;-76
2022/04/11 04:48:50;;;;;;;2.47;1.90;;;2.00;99.90;;;;;;5074461;28;20214;-77
2022/04/11 04:51:18;;;;;;;5.87;2.37;;;2.00;99.90;;;;;;5075670;28;20206;-77
2022/04/11 04:53:43;;;;;;;4.47;2.53;;;2.00;99.90;;;;;;5090810;28;20272;-77
2022/04/11 04:56:09;;;;;;;5.50;2.30;;;2.00;99.90;;;;;;5057176;28;20286;-77
2022/04/11 04:58:34;;;;;;;2.17;1.87;;;2.00;99.90;;;;;;5057589;28;20617;-77
2022/04/11 05:01:00;;;;;;;4.70;2.13;;;2.00;99.90;;;;;;5075197;28;20245;-77
2022/04/11 05:03:26;;;;;;;4.07;2.00;;;1.90;99.90;;;;;;5074953;28;20182;-77
2022/04/11 05:05:52;;;;;;;4.03;2.33;;;1.90;99.90;;;;;;5056162;28;20189;-77
2022/04/11 05:08:17;;;;;;;2.73;2.07;;;1.90;99.90;;;;;;5074595;28;20229;-75
2022/04/11 05:10:43;;;;;;;5.60;2.40;;;1.80;99.90;;;;;;5073042;28;20191;-75
2022/04/11 05:13:08;;;;;;;3.23;2.00;;;1.80;99.90;;;;;;5056577;28;20197;-77
2022/04/11 05:15:34;;;;;;;2.70;1.77;;;1.80;99.90;;;;;;5055701;28;20201;-77
2022/04/11 05:17:59;;;;;;;2.40;2.20;;;1.70;99.90;;;;;;5074530;28;20240;-77
2022/04/11 05:20:25;;;;;;;3.77;2.00;;;1.70;99.90;;;;;;5055872;28;20190;-77
2022/04/11 05:22:50;;;;;;;2.80;2.30;;;1.70;99.90;;;;;;5055957;28;20183;-77
2022/04/11 05:25:16;;;;;;;6.33;2.20;;;1.70;99.90;;;;;;5073442;28;20179;-76
2022/04/11 05:27:42;;;;;;;3.33;2.30;;;1.70;99.90;;;;;;5055098;28;20210;-77
2022/04/11 05:30:08;;;;;;;4.60;2.20;;;1.70;99.90;;;;;;5073440;28;20186;-77
2022/04/11 05:32:33;;;;;;;4.67;2.63;;;1.70;99.90;;;;;;5055714;28;20668;-77
2022/04/11 05:35:00;;;;;;;5.63;2.43;;;1.70;99.90;;;;;;5073402;28;20178;-77
2022/04/11 05:37:25;;;;;;;7.83;2.43;;;1.70;99.90;;;;;;5073127;28;20209;-77
2022/04/11 05:39:51;;;;;;;5.13;2.40;;;1.70;99.90;;;;;;5055382;28;20190;-77
2022/04/11 05:42:16;;;;;;;4.47;2.53;;;1.70;99.90;;;;;;5055061;28;20232;-77
2022/04/11 05:44:42;;;;;;;6.30;2.90;;;1.70;99.90;;;;;;5073030;28;20203;-77
2022/04/11 05:47:07;;;;;;;4.43;2.70;;;1.70;99.90;;;;;;5055049;28;20320;-77
2022/04/11 05:49:33;;;;;;;8.87;3.20;;;1.70;99.90;;;;;;5073321;28;20739;-77
2022/04/11 05:51:59;;;;;;;2.80;2.47;;;1.80;99.90;;;;;;5055034;28;20191;-77
2022/04/11 05:54:25;;;;;;;4.10;2.53;;;1.80;99.90;;;;;;5073025;28;20183;-77
2022/04/11 05:56:50;;;;;;;3.40;2.60;;;1.80;99.90;;;;;;5072679;28;20205;-77
2022/04/11 05:59:16;;;;;;;3.10;2.57;;;1.80;99.90;;;;;;5054552;28;20182;-77
2022/04/11 06:01:41;;;;;;;5.07;3.00;;;1.90;99.90;;;;;;5054529;28;20210;-77
2022/04/11 06:04:07;;;;;;;3.90;2.57;;;1.90;99.90;;;;;;5072629;28;20208;-77
2022/04/11 06:06:33;;;;;;;3.40;2.83;;;1.90;99.90;;;;;;5054514;28;20665;-77
2022/04/11 06:08:59;;;;;;;5.93;2.83;;;2.00;99.90;;;;;;5072848;28;20680;-77
2022/04/11 06:11:24;;;;;;;4.13;2.60;;;2.10;99.90;;;;;;5072923;28;20174;-76
2022/04/11 06:13:50;;;;;;;4.30;3.07;;;2.10;99.90;;;;;;5055467;28;20558;-77
2022/04/11 06:16:15;;;;;;;4.53;2.97;;;2.20;99.90;;;;;;5056071;28;20183;-77
2022/04/11 06:18:41;;;;;;;4.30;2.90;;;2.30;99.90;;;;;;5073524;28;20344;-77
2022/04/11 06:21:07;;;;;;;5.40;3.07;;;2.40;99.90;;;;;;5073139;28;20214;-77
2022/04/11 06:23:32;;;;;;;4.93;3.23;;;2.60;99.90;;;;;;5064684;28;20277;-77
2022/04/11 06:25:59;;;;;;;6.30;3.50;;;2.60;99.90;;;;;;5056983;28;20186;-77
2022/04/11 06:28:24;;;;;;;7.70;2.70;;;2.80;99.90;;;;;;5056233;28;20192;-77
2022/04/11 06:30:50;;;;;;;10.13;3.00;;;2.90;99.90;;;;;;5067682;28;20178;-77
2022/04/11 06:33:15;;;;;;;6.03;3.13;;;3.00;99.90;;;;;;5072766;28;20193;-77
2022/04/11 06:35:41;;;;;;;4.53;2.87;;;3.20;99.90;;;;;;5076078;28;20183;-77
2022/04/11 06:38:06;;;;;;;6.17;3.20;;;3.40;99.90;;;;;;5075825;28;20199;-77
2022/04/11 06:40:32;;;;;;;3.73;2.73;;;3.50;99.90;;;;;;5075729;28;20579;-76
2022/04/11 06:42:57;;;;;;;4.23;2.60;;;3.70;99.90;;;;;;5058221;28;20511;-77
2022/04/11 06:45:23;;;;;;;5.13;3.03;;;3.80;1.00;;;;;;5058309;28;20210;-76
2022/04/11 06:47:49;;;;;;;5.23;2.87;;;3.90;1.00;;;;;;5057680;28;20357;-76
2022/04/11 06:50:15;;;;;;;4.63;2.60;;;4.10;1.00;;;;;;5057516;28;20308;-77
2022/04/11 06:52:41;;;;;;;2.33;1.90;;;4.30;1.00;;;;;;5057664;28;20186;-77
2022/04/11 06:55:07;;;;;;;9.40;2.50;;;4.40;1.00;;;;;;5075596;28;20187;-77
2022/04/11 06:57:32;;;;;;;5.23;2.13;;;4.60;1.00;;;;;;5075500;28;20230;-76
2022/04/11 06:59:58;;;;;;;4.40;2.20;;;4.70;99.90;;;;;;5075514;28;20198;-77
2022/04/11 07:02:23;;;;;;;9.40;2.43;;;5.00;1.00;;;;;;5057321;28;20214;-75
2022/04/11 07:04:49;;;;;;;3.53;1.93;;;5.10;99.90;;;;;;5075532;28;20187;-77
2022/04/11 07:07:15;;;;;;;4.87;2.00;;;5.20;1.00;;;;;;5057185;28;20203;-77
2022/04/11 07:09:40;;;;;;;4.80;2.20;;;5.30;1.00;;;;;;5057685;28;20218;-77
2022/04/11 07:12:06;;;;;;;4.47;1.50;;;5.50;14.90;;;;;;5075498;28;20182;-77
2022/04/11 07:14:32;;;;;;;3.97;1.70;;;5.60;1.00;;;;;;5075120;28;20232;-77
2022/04/11 07:16:57;;;;;;;3.50;1.90;;;5.80;1.00;;;;;;5075120;28;20198;-77
2022/04/11 07:19:23;;;;;;;4.70;1.90;;;6.00;99.90;;;;;;5074940;28;20232;-77
2022/04/11 07:21:48;;;;;;;3.13;2.00;;;6.10;38.40;;;;;;5058699;28;20293;-77
2022/04/11 07:24:14;;;;;;;6.43;1.70;;;6.30;1.00;;;;;;5075150;28;20171;-75
2022/04/11 07:26:40;;;;;;;9.07;2.20;;;6.40;99.90;;;;;;5056991;28;20195;-77
2022/04/11 07:29:06;;;;;;;4.63;1.80;;;6.50;99.90;;;;;;5074213;28;20174;-77
2022/04/11 07:31:32;;;;;;;5.17;1.80;;;6.60;99.90;;;;;;5057371;28;20254;-77
2022/04/11 07:33:58;;;;;;;4.90;1.93;;;6.70;1.00;;;;;;5069063;28;20241;-77
2022/04/11 07:36:23;;;;;;;4.40;2.10;;;6.80;1.00;;;;;;5056873;28;20588;-77
2022/04/11 07:38:49;;;;;;;7.13;2.00;;;7.00;1.00;;;;;;5057116;28;20708;-77
2022/04/11 07:41:15;;;;;;;3.30;1.60;;;7.10;1.00;;;;;;5074258;28;20226;-75
2022/04/11 07:43:40;;;;;;;5.07;2.03;;;7.20;99.90;;;;;;5073305;28;20190;-77
2022/04/11 07:46:06;;;;;;;5.00;1.90;;;7.30;1.00;;;;;;5054065;28;20192;-77
2022/04/11 07:48:32;;;;;;;4.20;1.70;;;7.50;1.00;;;;;;5074033;28;20237;-77
2022/04/11 07:50:58;;;;;;;7.03;3.17;;;7.60;1.00;;;;;;5057433;28;20249;-77
2022/04/11 07:53:23;;;;;;;3.53;2.07;;;7.70;1.00;;;;;;5074879;28;20646;-77
2022/04/11 07:55:49;;;;;;;6.80;2.20;;;7.80;99.90;;;;;;5057556;28;20740;-77
2022/04/11 07:58:16;;;;;;;6.57;2.20;;;7.90;99.90;;;;;;5076527;28;20205;-78
2022/04/11 08:00:42;;;;;;;3.83;1.70;;;7.90;99.90;;;;;;5076439;28;20210;-78
2022/04/11 08:03:08;;;;;;;5.13;2.30;;;8.00;99.90;;;;;;5075668;28;20171;-78
2022/04/11 08:05:33;;;;;;;4.43;2.20;;;8.10;99.90;;;;;;5074966;28;20183;-76
2022/04/11 08:07:59;;;;;;;5.37;1.97;;;8.20;1.00;;;;;;5056846;28;20226;-77
2022/04/11 08:10:25;;;;;;;5.43;2.40;;;8.30;1.00;;;;;;5074635;28;20266;-78
2022/04/11 08:12:56;;;;;;;7.50;1.77;;;8.40;1.00;;;;;;5072791;28;20191;-77
2022/04/11 08:15:22;;;;;;;4.90;2.13;;;8.50;1.00;;;;;;5048827;28;20565;-78
2022/04/11 08:17:48;;;;;;;5.53;1.80;;;8.60;1.00;;;;;;5068161;28;20207;-77
2022/04/11 08:20:14;;;;;;;4.50;2.00;;;8.60;1.00;;;;;;5060446;28;20251;-75
2022/04/11 08:22:39;;;;;;;4.10;2.30;;;8.70;99.90;;;;;;5071021;28;20216;-75
2022/04/11 08:25:05;;;;;;;3.70;2.33;;;8.80;99.90;;;;;;5073297;28;20267;-75
2022/04/11 08:27:31;;;;;;;3.30;1.60;;;8.90;99.90;;;;;;5053502;28;20582;-74
2022/04/11 08:29:56;;;;;;;3.23;1.80;;;9.00;99.90;;;;;;5073066;28;20217;-75
2022/04/11 08:32:22;;;;;;;4.67;1.83;;;9.10;99.90;;;;;;5072253;28;20234;-75
2022/04/11 08:34:48;;;;;;;3.80;1.70;;;9.20;84.70;;;;;;5055255;28;20618;-74
2022/04/11 08:37:13;;;;;;;7.07;2.23;;;9.20;99.90;;;;;;5055355;28;20202;-75
2022/04/11 08:39:39;;;;;;;5.70;1.97;;;9.30;99.90;;;;;;5073135;28;20190;-74
2022/04/11 08:42:05;;;;;;;3.70;1.97;;;9.30;69.20;;;;;;5073073;28;20210;-75
2022/04/11 08:44:32;;;;;;;3.03;1.70;;;9.40;99.90;;;;;;5055059;28;20183;-74
2022/04/11 08:47:05;;;;;;;2.33;1.80;;;9.50;76.20;;;;;;5072112;28;20206;-75
2022/04/11 08:49:31;;;;;;;3.07;1.80;;;9.60;28.00;;;;;;5073155;28;20198;-74
2022/04/11 08:51:57;;;;;;;3.53;2.20;;;9.70;1.00;;;;;;5054913;28;20562;-74
2022/04/11 08:54:22;;;;;;;4.57;1.80;;;9.80;1.00;;;;;;5072829;28;20179;-75
2022/04/11 08:56:48;;;;;;;4.23;1.77;;;9.80;1.00;;;;;;5054735;28;20578;-74
2022/04/11 08:59:14;;;;;;;3.17;1.87;;;9.90;1.00;;;;;;5072798;28;20603;-74
2022/04/11 09:01:40;;;;;;;5.20;2.03;;;10.00;1.00;;;;;;5072817;28;20203;-75
2022/04/11 09:04:08;;;;;;;7.30;1.87;;;10.00;1.00;;;;;;5054670;28;20236;-75
2022/04/11 09:06:35;;;;;;;4.10;1.90;;;10.20;1.00;;;;;;5054546;28;20599;-75
2022/04/11 09:09:02;;;;;;;5.03;1.87;;;10.20;1.00;;;;;;5072571;28;20208;-75
2022/04/11 09:11:34;;;;;;;4.63;1.93;;;10.30;1.00;;;;;;5072576;28;20642;-75
2022/04/11 09:14:01;;;;;;;4.13;2.00;;;10.40;1.00;;;;;;5072494;28;20178;-75
2022/04/11 09:16:28;;;;;;;5.00;2.10;;;10.50;1.00;;;;;;5054422;28;20649;-75
2022/04/11 09:18:55;;;;;;;4.00;1.70;;;10.60;1.00;;;;;;5054540;28;20680;-75
2022/04/11 09:21:24;;;;;;;3.10;1.87;;;10.70;1.00;;;;;;5072472;28;20207;-76
2022/04/11 09:24:10;;;;;;;3.33;1.90;;;10.70;1.00;;;;;;5072675;28;20284;-75
2022/04/11 09:26:39;;;;;;;2.67;1.80;;;10.70;1.00;;;;;;5072112;28;20187;-75
2022/04/11 09:29:05;;;;;;;4.23;1.97;;;10.80;1.00;;;;;;5054345;28;20273;-75
2022/04/11 09:31:31;;;;;;;4.43;2.23;;;10.90;1.00;;;;;;5054389;28;20602;-74
2022/04/11 09:34:16;;;;;;;7.43;2.03;;;10.90;1.00;;;;;;5072639;28;20179;-75
2022/04/11 09:36:49;;;;;;;6.83;2.07;;;11.00;1.00;;;;;;5072403;28;20213;-75
2022/04/11 09:39:15;;;;;;;5.47;1.90;;;11.10;1.00;;;;;;5072369;28;20179;-75
2022/04/11 09:41:46;;;;;;;6.37;1.53;;;11.10;1.00;;;;;;5072132;28;20202;-75
2022/04/11 09:44:25;;;;;;;4.10;2.03;;;11.20;1.00;;;;;;5055544;28;20183;-78
2022/04/11 09:46:52;;;;;;;6.30;1.80;;;11.30;1.00;;;;;;5054564;28;20237;-78
2022/04/11 09:49:19;;;;;;;4.53;1.50;;;11.40;1.00;;;;;;5070228;28;20642;-78
2022/04/11 09:52:12;;;;;;;3.43;1.93;;;11.50;1.00;;;;;;5055238;28;20218;-77
2022/04/11 09:54:44;;;;;;;3.63;1.90;;;11.50;1.00;;;;;;5070427;28;20185;-78
2022/04/11 09:57:12;;;;;;;2.80;1.87;;;11.60;1.00;;;;;;5074896;28;20210;-78
2022/04/11 09:59:39;;;;;;;5.23;1.80;;;11.60;1.00;;;;;;5058027;28;20199;-78
2022/04/11 10:02:06;;;;;;;4.20;1.90;;;11.70;1.00;;;;;;5058644;28;20750;-77
2022/04/11 10:04:35;;;;;;;3.13;1.80;;;11.70;1.00;;;;;;5077989;28;20249;-78
2022/04/11 10:07:02;;;;;;;3.70;1.70;;;11.80;1.00;;;;;;5078577;28;20223;-78
2022/04/11 10:09:27;;;;;;;2.73;1.70;;;11.80;1.00;;;;;;5075821;28;20199;-78
2022/04/11 10:11:54;;;;;;;3.60;1.70;;;11.90;1.00;;;;;;5079478;28;20185;-78
2022/04/11 10:14:28;;;;;;;3.80;1.83;;;12.00;99.90;;;;;;5079305;28;20179;-78
2022/04/11 10:16:57;;;;;;;3.03;2.00;;;12.00;1.00;;;;;;5060989;28;20211;-78
2022/04/11 10:19:25;;;;;;;2.70;2.03;;;12.10;1.00;;;;;;5061566;28;20187;-78
2022/04/11 10:21:54;;;;;;;4.03;1.73;;;12.10;1.00;;;;;;5061052;28;20225;-78
2022/04/11 10:24:38;;;;;;;5.20;1.80;;;12.30;1.00;;;;;;5079526;28;20183;-78
2022/04/11 10:27:22;;;;;;;8.30;2.03;;;12.30;1.00;;;;;;5079057;28;20220;-78
2022/04/11 10:29:52;;;;;;;3.27;1.70;;;12.40;1.00;;;;;;5078739;28;20288;-78
2022/04/11 10:32:29;;;;;;;4.50;1.93;;;12.40;1.00;;;;;;5079464;28;20392;-78
2022/04/11 10:35:07;;;;;;;4.83;2.00;;;12.40;1.00;;;;;;5061150;28;20194;-78
2022/04/11 10:37:55;;;;;;;4.57;1.87;;;12.50;99.90;;;;;;5080418;28;20199;-78
2022/04/11 10:40:20;;;;;;;3.67;1.80;;;12.60;99.90;;;;;;5083500;28;20217;-77
2022/04/11 10:42:58;;;;;;;5.17;1.73;;;12.60;99.90;;;;;;5083613;28;20218;-77
2022/04/11 10:45:35;;;;;;;4.50;2.07;;;12.70;99.90;;;;;;5079642;28;20201;-78
2022/04/11 10:48:02;;;;;;;3.87;2.10;;;12.80;99.90;;;;;;5104106;22;20238;-74
2022/04/11 10:50:36;;;;;;;4.60;1.70;;;12.70;99.90;;;;;;5075544;28;20246;-74
2022/04/11 10:53:23;;;;;;;4.23;1.60;;;12.80;99.90;;;;;;5075518;28;20254;-74
2022/04/11 10:56:06;;;;;;;2.00;1.60;;;12.90;99.90;;;;;;5074990;28;20162;-74
2022/04/11 10:58:49;;;;;;;3.27;1.80;;;13.00;99.90;;;;;;5074929;28;20210;-74
2022/04/11 11:01:36;;;;;;;3.97;1.63;;;13.00;99.90;;;;;;5075319;28;20195;-74
2022/04/11 11:04:18;;;;;;;4.17;1.80;;;13.10;99.90;;;;;;5061407;28;20187;-75
2022/04/11 11:06:43;;;;;;;2.80;1.83;;;13.10;99.90;;;;;;5057315;28;20175;-74
2022/04/11 11:09:19;;;;;;;3.43;1.70;;;13.20;99.90;;;;;;5074675;28;20199;-74
2022/04/11 11:11:47;;;;;;;5.63;2.03;;;13.20;99.90;;;;;;5075709;28;20179;-74
2022/04/11 11:14:41;;;;;;;3.60;1.90;;;13.20;99.90;;;;;;5057261;28;20187;-74
2022/04/11 11:17:07;;;;;;;4.13;1.63;;;13.30;99.90;;;;;;5075103;28;20171;-73
2022/04/11 11:20:03;;;;;;;2.60;1.60;;;13.40;99.90;;;;;;5056938;28;20202;-74
2022/04/11 11:22:33;;;;;;;2.77;1.37;;;13.40;99.90;;;;;;5075157;28;20202;-74
2022/04/11 11:25:18;;;;;;;2.97;1.60;;;13.50;99.90;;;;;;5074281;28;20249;-74
2022/04/11 11:27:45;;;;;;;3.47;1.60;;;13.50;99.90;;;;;;5074501;28;20227;-73
2022/04/11 11:30:12;;;;;;;2.60;1.50;;;13.60;99.90;;;;;;5074836;28;20171;-74
2022/04/11 11:32:40;;;;;;;4.67;1.67;;;13.60;99.90;;;;;;5056756;28;20270;-74
2022/04/11 11:35:08;;;;;;;4.10;1.73;;;13.70;99.90;;;;;;5074842;28;20181;-74
2022/04/11 11:37:34;;;;;;;6.10;1.80;;;13.70;99.90;;;;;;5056764;28;20179;-74
2022/04/11 11:40:03;;;;;;;4.03;1.73;;;13.60;99.90;;;;;;5074685;28;20179;-74
2022/04/11 11:42:35;;;;;;;2.20;1.50;;;13.60;99.90;;;;;;5056623;28;20215;-75
2022/04/11 11:45:02;;;;;;;3.10;1.70;;;13.70;99.90;;;;;;5056831;28;20178;-76
2022/04/11 11:47:28;;;;;;;4.00;2.20;;;13.80;99.90;;;;;;5075109;28;20238;-76
2022/04/11 11:50:01;;;;;;;5.83;1.93;;;13.90;99.90;;;;;;5056491;28;20191;-75
2022/04/11 11:52:27;;;;;;;3.30;1.80;;;13.90;99.90;;;;;;5074522;28;20163;-75
2022/04/11 11:54:53;;;;;;;3.70;1.93;;;13.90;99.90;;;;;;5074699;28;20182;-75
2022/04/11 11:57:28;;;;;;;2.70;1.50;;;14.00;99.90;;;;;;5074694;28;20250;-75
2022/04/11 12:00:02;;;;;;;4.53;1.70;;;14.00;99.90;;;;;;5074500;28;20166;-75
2022/04/11 12:05:26;;;;;;;3.00;1.90;;;14.30;99.90;;;;;;5074160;28;20217;-75
2022/04/11 12:08:14;;;;;;;4.33;1.77;;;14.30;99.90;;;;;;5074097;28;20223;-76
2022/04/11 12:10:46;;;;;;;3.73;1.97;;;14.40;99.90;;;;;;5074101;28;20168;-76
2022/04/11 12:13:23;;;;;;;3.07;1.90;;;14.40;99.90;;;;;;5074309;28;20589;-76
2022/04/11 12:15:49;;;;;;;4.00;1.70;;;14.50;99.90;;;;;;5074033;28;20182;-74
2022/04/11 12:18:15;;;;;;;3.47;1.73;;;14.50;99.90;;;;;;5055897;28;20241;-74
2022/04/11 12:20:43;;;;;;;5.20;1.90;;;14.70;99.90;;;;;;5072860;28;20167;-74
2022/04/11 12:23:11;;;;;;;3.10;2.10;;;14.70;99.90;;;;;;5073781;28;20172;-74
2022/04/11 12:25:39;;;;;;;2.60;1.70;;;14.80;99.90;;;;;;5074079;28;20167;-74
2022/04/11 12:28:18;;;;;;;2.80;1.70;;;14.80;99.90;;;;;;5073910;28;20582;-74
2022/04/11 12:30:50;;;;;;;5.17;2.13;;;14.80;99.90;;;;;;5073628;28;20199;-74
2022/04/11 12:33:33;;;;;;;2.83;1.70;;;14.80;99.90;;;;;;5073704;28;20175;-74
2022/04/11 12:36:13;;;;;;;5.33;2.10;;;14.90;99.90;;;;;;5073569;28;20183;-75
2022/04/11 12:38:59;;;;;;;2.50;1.70;;;14.90;99.90;;;;;;5073574;28;20202;-74
2022/04/11 12:41:36;;;;;;;3.43;1.80;;;14.90;99.90;;;;;;5073354;28;20198;-74
2022/04/11 12:44:11;;;;;;;5.90;2.20;;;14.90;99.90;;;;;;5073452;28;20192;-74
2022/04/11 12:46:40;;;;;;;3.33;2.00;;;14.80;99.90;;;;;;5073644;28;20171;-74
2022/04/11 12:49:07;;;;;;;2.03;1.70;;;14.90;99.90;;;;;;5073270;28;20220;-76
2022/04/11 12:51:33;;;;;;;4.30;1.90;;;14.90;99.90;;;;;;5055440;28;20202;-76
2022/04/11 12:54:07;;;;;;;2.67;1.80;;;15.00;99.90;;;;;;5055520;28;20190;-75
2022/04/11 12:56:38;;;;;;;7.93;1.97;;;15.00;99.90;;;;;;5073359;28;20201;-75
2022/04/11 12:59:04;;;;;;;4.03;1.90;;;15.10;99.90;;;;;;5073096;28;20674;-75
2022/04/11 13:01:50;;;;;;;3.50;2.00;;;15.10;99.90;;;;;;5073536;28;20690;-75